Latest Weather Observations for Milingimbi

IDD60801

Issued at 11:31 pm CST Friday 6 March 2015 (issued every 30 minutes, with the page automatically refreshed every 10 minutes)

About weather observations | Map of weather stations | Latest weather observations for NT | Other Formats
Station Details ID: 014404 Name: MILINGIMBI AIRPORT Lat: -12.09 Lon: 134.89 Height: 15.0 m
Data from the previous 72 hours. | See also: Recent months at Milingimbi
Date/Time
CST
Temp
°C
App
Temp
°C
Dew
Point
Rel
Hum
%
Delta-T
°C
Wind Press
QNH
hPa
Press
MSL
hPa
Rain
since 9 am
mm
Dir
 
Spd
km/h
Gust
km/h
Spd
kts
Gust
kts
06/11:30pm 27.7 32.8 24.9 85 2.0 WNW 7 9 4 5 1008.2 - 1.4
06/11:00pm 28.1 33.2 24.9 83 2.2 NW 7 11 4 6 1008.3 - 1.4
06/10:30pm 28.0 33.1 24.6 82 2.4 NW 6 9 3 5 1008.0 - 1.4
06/10:00pm 28.1 32.5 25.1 84 2.1 WNW 11 17 6 9 1007.5 - 1.4
06/09:30pm 28.1 33.2 24.9 83 2.2 NW 7 11 4 6 1007.2 - 1.4
06/09:00pm 27.9 33.1 25.1 85 2.0 NW 7 9 4 5 1006.8 1006.7 1.4
06/08:30pm 28.1 33.3 25.1 84 2.1 WNW 7 9 4 5 1006.5 - 1.4
06/08:00pm 28.2 32.7 24.6 81 2.5 NNW 9 13 5 7 1006.4 - 1.4
06/07:30pm 27.9 32.6 24.9 84 2.1 NW 9 13 5 7 1005.4 - 1.4
06/07:00pm 28.9 33.7 24.5 77 3.1 NNW 7 11 4 6 1005.3 - 1.0
06/06:30pm 28.8 33.8 24.8 79 2.8 NNW 7 13 4 7 1004.9 - 1.0
06/06:00pm 28.7 33.5 24.5 78 2.9 NNW 7 11 4 6 1004.8 1004.7 1.0
06/05:30pm 28.1 31.9 23.5 76 3.2 N 9 13 5 7 1004.5 - 1.0
06/05:00pm 27.7 30.2 23.1 76 3.1 NNE 15 24 8 13 1004.7 - 1.0
06/04:30pm 27.5 28.9 22.9 76 3.1 E 20 28 11 15 1005.5 - 1.0
06/04:00pm 29.6 34.2 24.2 73 3.8 N 7 13 4 7 1005.1 - 0.6
06/03:30pm 31.3 33.6 23.4 63 5.5 WNW 17 30 9 16 1005.0 - 0.4
06/03:00pm 32.1 34.6 23.1 59 6.2 NW 15 24 8 13 1004.7 1004.6 0.4
06/02:30pm 32.5 35.3 24.3 62 5.7 NNW 17 26 9 14 1005.0 - 0.4
06/02:00pm 32.6 35.5 23.8 59 6.1 NNW 15 26 8 14 1005.5 - 0.4
06/01:30pm 32.2 34.6 24.3 63 5.5 NW 19 24 10 13 1006.0 - 0.4
06/01:00pm 32.0 35.7 25.1 67 4.9 NW 15 24 8 13 1006.4 - 0.4
06/12:30pm 30.6 33.8 24.3 69 4.4 NW 15 19 8 10 1007.0 - 0.4
06/12:00pm 31.4 35.8 25.0 69 4.5 NNW 11 15 6 8 1007.3 1007.2 0.4
06/11:30am 28.4 32.8 24.4 79 2.8 N 9 17 5 9 1007.8 - 0.4
06/11:00am 30.4 33.6 24.3 70 4.3 W 15 20 8 11 1007.6 - 0.0
06/10:30am 30.4 34.3 24.3 70 4.3 NNW 11 15 6 8 1007.7 - 0.0
06/10:00am 29.8 33.2 24.0 71 4.0 WNW 13 19 7 10 1007.7 - 0.0
06/09:30am 29.6 33.0 24.7 75 3.4 NW 15 20 8 11 1007.6 - 0.0
06/09:00am 29.5 33.9 25.0 77 3.2 WNW 11 15 6 8 1007.5 1007.4 0.0
06/08:30am 28.6 33.0 25.0 81 2.5 W 11 15 6 8 1007.1 - 0.0
06/08:00am 27.6 32.2 24.8 85 2.0 W 9 13 5 7 1007.1 - 0.0
06/07:30am 26.9 32.0 24.7 88 1.5 W 6 9 3 5 1006.9 - 0.0
06/07:00am 26.0 30.9 24.6 92 1.0 W 7 7 4 4 1006.7 - 0.0
06/06:30am 25.7 31.8 24.5 93 0.8 CALM 0 0 0 0 1006.7 - 0.0
06/06:00am 25.7 30.6 24.3 92 1.0 SSW 6 7 3 4 1006.7 1006.6 0.0
06/05:30am 25.7 30.5 24.5 93 0.8 S 7 9 4 5 1006.7 - 0.0
06/05:00am 25.8 30.3 24.6 93 0.8 S 9 11 5 6 1006.6 - 0.0
06/04:30am 25.9 32.0 24.5 92 1.0 CALM 0 0 0 0 1006.7 - 0.0
06/04:00am 26.0 31.5 24.6 92 1.0 S 4 6 2 3 1006.9 - 0.0
06/03:30am 26.0 30.6 24.8 93 0.8 SSW 9 11 5 6 1007.0 - 0.0
06/03:00am 26.1 31.6 24.7 92 1.0 SSW 4 7 2 4 1006.9 1006.8 0.0
06/02:30am 26.1 32.1 24.3 90 1.2 CALM 0 0 0 0 1007.2 - 0.0
06/02:00am 26.2 31.9 24.4 90 1.2 SW 2 7 1 4 1007.5 - 0.0
06/01:30am 26.3 31.7 24.5 90 1.2 SW 4 7 2 4 1007.8 - 0.0
06/01:00am 26.5 32.6 24.5 89 1.4 CALM 0 0 0 0 1008.1 - 0.0
06/12:30am 26.7 33.1 24.9 90 1.3 CALM 0 0 0 0 1008.4 - 0.0
06/12:00am 26.9 33.0 24.5 87 1.7 CALM 0 0 0 0 1008.9 1008.8 0.0
 
Date/Time
CST
Temp
°C
App
Temp
°C
Dew
Point
Rel
Hum
%
Delta-T
°C
Wind Press
QNH
hPa
Press
MSL
hPa
Rain
since 9 am
mm
Dir
 
Spd
km/h
Gust
km/h
Spd
kts
Gust
kts
05/11:30pm 27.2 33.3 24.5 85 1.9 CALM 0 0 0 0 1009.1 - 0.0
05/11:00pm 27.6 33.7 25.0 86 1.8 NW 2 6 1 3 1009.2 - 0.0
05/10:30pm 27.6 34.1 25.0 86 1.8 CALM 0 0 0 0 1009.1 - 0.0
05/10:00pm 27.7 34.0 24.7 84 2.1 CALM 0 0 0 0 1008.6 - 0.0
05/09:30pm 27.6 32.4 24.2 82 2.4 NNW 6 7 3 4 1008.2 - 0.0
05/09:00pm 28.1 34.0 24.7 82 2.4 N 2 7 1 4 1008.1 1008.0 0.0
05/08:30pm 27.8 33.3 24.0 80 2.6 N 2 7 1 4 1007.6 - 0.0
05/08:00pm 27.9 32.2 23.3 76 3.1 NNW 6 7 3 4 1007.3 - 0.0
05/07:30pm 27.8 31.7 23.0 75 3.3 N 7 9 4 5 1007.1 - 0.0
05/07:00pm 28.0 31.7 22.5 72 3.7 W 7 11 4 6 1006.8 - 0.0
05/06:30pm 28.0 31.6 23.1 74 3.3 WSW 9 13 5 7 1006.6 - 0.0
05/06:00pm 28.1 30.1 22.3 70 3.9 SW 15 22 8 12 1006.5 1006.4 0.0
05/05:30pm 30.1 32.7 23.3 67 4.7 N 15 22 8 12 1006.0 - 0.0
05/05:00pm 30.6 32.7 23.8 67 4.7 NNW 19 26 10 14 1005.7 - 0.0
05/04:30pm 30.8 33.2 23.7 66 4.9 N 17 26 9 14 1005.7 - 0.0
05/04:00pm 31.0 34.2 24.4 68 4.6 NNW 15 24 8 13 1005.6 - 0.0
05/03:30pm 31.2 34.7 24.8 69 4.5 N 15 28 8 15 1005.6 - 0.0
05/03:00pm 31.5 34.7 24.9 68 4.7 N 17 24 9 13 1005.6 1005.5 0.0
05/02:30pm 32.0 35.0 24.6 65 5.2 N 17 30 9 16 1005.8 - 0.0
05/02:00pm 32.5 35.3 23.7 59 6.1 N 15 20 8 11 1006.4 - 0.0
05/01:30pm 33.1 36.2 22.8 54 7.1 ENE 11 17 6 9 1007.0 - 0.0
05/01:00pm 32.6 35.4 23.0 57 6.6 ENE 13 19 7 10 1007.6 - 0.0
05/12:30pm 32.0 35.0 22.7 58 6.4 E 11 19 6 10 1007.9 - 0.0
05/12:00pm 31.8 34.7 23.1 60 6.0 ENE 13 19 7 10 1008.4 1008.3 0.0
05/11:30am 31.6 35.3 24.5 66 5.0 ESE 13 17 7 9 1008.8 - 0.0
05/11:00am 31.5 35.7 24.1 65 5.2 ENE 9 19 5 10 1009.0 - 0.0
05/10:30am 30.9 35.7 23.5 64 5.1 NE 4 9 2 5 1009.4 - 0.0
05/10:00am 30.5 35.4 24.6 70 4.1 SE 7 13 4 7 1009.6 - 0.0
05/09:30am 29.5 33.2 23.9 72 3.9 ESE 11 15 6 8 1009.6 - 0.0
05/09:00am 29.2 33.7 23.9 73 3.7 ESE 7 13 4 7 1009.6 1009.5 0.4
05/08:30am 28.7 33.8 24.9 80 2.7 SE 7 9 4 5 1009.4 - 0.4
05/08:00am 27.4 32.6 24.8 86 1.8 S 6 7 3 4 1009.2 - 0.4
05/07:30am 26.1 32.0 24.7 92 1.0 SW 2 6 1 3 1008.9 - 0.4
05/07:00am 25.6 31.4 24.6 94 0.7 SSW 2 7 1 4 1008.6 - 0.4
05/06:30am 25.5 30.5 24.5 94 0.7 SSW 6 7 3 4 1008.4 - 0.4
05/06:00am 25.2 29.7 24.0 93 0.8 SW 7 7 4 4 1008.0 1007.9 0.4
05/05:30am 25.4 31.4 24.2 93 0.8 CALM 0 0 0 0 1007.7 - 0.4
05/05:00am 25.5 31.4 24.1 92 1.0 CALM 0 0 0 0 1007.4 - 0.4
05/04:30am 25.4 31.1 23.8 91 1.1 CALM 0 0 0 0 1007.3 - 0.4
05/04:00am 25.7 30.5 24.1 91 1.1 S 6 7 3 4 1007.4 - 0.4
05/03:30am 25.6 30.2 23.8 90 1.2 S 6 7 3 4 1007.7 - 0.4
05/03:00am 25.7 31.4 23.7 89 1.4 CALM 0 0 0 0 1007.7 1007.6 0.4
05/02:30am 25.8 31.5 23.8 89 1.4 CALM 0 0 0 0 1007.9 - 0.4
05/02:00am 25.9 31.8 24.1 90 1.2 CALM 0 0 0 0 1008.2 - 0.4
05/01:30am 26.0 31.8 23.9 88 1.4 CALM 0 0 0 0 1008.5 - 0.4
05/01:00am 26.1 32.0 24.1 89 1.4 CALM 0 0 0 0 1008.9 - 0.4
05/12:30am 25.9 31.3 23.8 88 1.4 S 2 7 1 4 1009.2 - 0.4
05/12:00am 26.1 31.9 24.0 88 1.4 CALM 0 0 0 0 1009.4 1009.3 0.4
 
Date/Time
CST
Temp
°C
App
Temp
°C
Dew
Point
Rel
Hum
%
Delta-T
°C
Wind Press
QNH
hPa
Press
MSL
hPa
Rain
since 9 am
mm
Dir
 
Spd
km/h
Gust
km/h
Spd
kts
Gust
kts
04/11:30pm 26.5 32.5 24.2 87 1.6 CALM 0 6 0 3 1009.5 - 0.4
04/11:00pm 26.5 32.5 24.2 87 1.6 CALM 0 6 0 3 1009.7 - 0.4
04/10:30pm 26.2 30.4 23.5 85 1.8 ENE 7 11 4 6 1009.7 - 0.4
04/10:00pm 26.1 30.0 23.6 86 1.7 E 9 17 5 9 1009.8 - 0.4
04/09:30pm 27.2 31.3 24.5 85 1.9 SE 11 13 6 7 1009.6 - 0.0
04/09:00pm 27.7 30.5 23.7 79 2.8 SSE 15 22 8 12 1009.2 1009.1 0.0
04/08:30pm 28.8 33.3 23.9 75 3.4 N 7 11 4 6 1008.9 - 0.0
04/08:00pm 28.6 33.1 23.9 75 3.2 NNW 7 11 4 6 1008.1 - 0.0
04/07:30pm 28.8 33.6 24.1 76 3.3 NNW 6 9 3 5 1008.1 - 0.0
04/07:00pm 28.9 32.5 23.8 74 3.5 NNW 11 15 6 8 1007.3 - 0.0
04/06:30pm 29.4 33.4 23.8 72 3.9 NW 9 17 5 9 1006.9 - 0.0
04/06:00pm 29.9 33.3 23.3 67 4.5 NNW 11 17 6 9 1006.5 1006.4 0.0
04/05:30pm 30.5 34.3 23.4 66 4.9 NW 9 15 5 8 1006.3 - 0.0
04/05:00pm 30.8 34.3 23.5 65 5.0 NW 11 22 6 12 1006.7 - 0.0
04/04:30pm 30.7 34.1 24.1 68 4.6 N 13 19 7 10 1006.4 - 0.0
04/04:00pm 31.3 34.9 24.4 66 4.8 N 13 20 7 11 1006.4 - 0.0
04/03:30pm 30.7 33.1 23.6 66 4.9 N 17 26 9 14 1006.3 - 0.0
04/03:00pm 31.5 34.9 24.6 67 4.9 N 15 22 8 12 1006.2 1006.1 0.0
04/02:30pm 31.7 35.1 24.6 66 5.0 N 15 20 8 11 1006.2 - 0.0
04/02:00pm 31.3 34.6 23.9 64 5.1 NNE 13 20 7 11 1006.8 - 0.0
04/01:30pm 31.2 34.1 23.8 64 5.1 N 15 22 8 12 1006.9 - 0.0
04/01:00pm 31.5 34.4 22.5 59 6.1 ENE 11 20 6 11 1007.9 - 0.0
04/12:30pm 32.3 35.7 23.3 59 6.2 E 11 20 6 11 1008.4 - 0.0
04/12:00pm 31.2 33.9 22.2 58 6.1 NE 11 19 6 10 1008.9 1008.8 0.0
04/11:30am 31.1 34.9 24.0 66 4.9 ENE 11 19 6 10 1009.2 - 0.0
04/11:00am 30.8 33.8 24.0 67 4.7 E 15 19 8 10 1009.6 - 0.0
04/10:30am 31.2 33.9 22.8 61 5.8 E 13 17 7 9 1009.5 - 0.0
04/10:00am 31.0 35.5 24.6 68 4.5 E 9 13 5 7 1009.2 - 0.0
04/09:30am 29.7 35.0 24.3 73 3.8 SW 4 6 2 3 1009.0 - 0.0
04/09:00am 28.8 34.4 24.8 79 2.8 SSW 4 7 2 4 1009.1 1009.0 6.2
04/08:30am 27.8 33.8 24.8 84 2.1 SSE 2 7 1 4 1009.0 - 6.2
04/08:00am 27.0 32.4 25.4 91 1.1 S 7 11 4 6 1008.5 - 6.2
04/07:30am 26.3 31.8 25.3 94 0.7 SSE 6 9 3 5 1008.4 - 6.2
04/07:00am 25.8 31.0 25.1 96 0.5 SSE 7 9 4 5 1007.9 - 6.2
04/06:30am 25.5 31.1 24.8 96 0.5 S 4 9 2 5 1007.6 - 6.2
04/06:00am 25.4 31.2 24.5 95 0.6 SSW 2 6 1 3 1007.5 1007.4 6.2
04/05:30am 25.5 30.9 24.5 94 0.7 W 4 6 2 3 1007.1 - 6.2
04/05:00am 25.7 30.9 24.8 95 0.6 SW 6 9 3 5 1007.1 - 6.2
04/04:30am 25.6 31.9 24.7 95 0.6 CALM 0 0 0 0 1006.8 - 6.2
04/04:00am 25.7 32.0 24.8 95 0.6 CALM 0 0 0 0 1006.8 - 6.2
04/03:30am 25.5 31.6 24.5 94 0.7 CALM 0 0 0 0 1006.6 - 6.0
04/03:00am 25.4 31.4 24.2 93 0.8 CALM 0 0 0 0 1006.4 1006.3 6.0
04/02:30am 25.6 31.7 24.4 93 0.8 CALM 0 0 0 0 1006.7 - 6.0
04/02:00am 25.8 31.6 24.6 93 0.8 N 2 6 1 3 1006.9 - 6.0
04/01:30am 26.1 32.4 24.7 92 1.0 CALM 0 0 0 0 1007.1 - 6.0
04/01:00am 25.9 31.3 24.5 92 1.0 N 4 7 2 4 1007.3 - 6.0
04/12:30am 26.2 32.7 25.0 93 0.8 CALM 0 0 0 0 1007.9 - 6.0
04/12:00am 26.2 32.7 25.0 93 0.8 CALM 0 0 0 0 1008.2 1008.1 6.0

Other Formats:

Comma delimited format used in spreadsheet applications
http://www.bom.gov.au/fwo/IDD60801/IDD60801.94140.axf

JavaScript Object Notation format (JSON) in row-major order
http://www.bom.gov.au/fwo/IDD60801/IDD60801.94140.json